sensor_id;sensor_type;location;lat;lon;timestamp;temperature;humidity
32107;DHT22;18622;51.998;10.440;2023-02-22T03:49:26;7.40;99.90
32107;DHT22;18622;51.998;10.440;2023-02-22T03:51:55;7.30;99.90
32107;DHT22;18622;51.998;10.440;2023-02-22T03:54:23;7.20;99.90
32107;DHT22;18622;51.998;10.440;2023-02-22T03:56:53;7.20;99.90
32107;DHT22;18622;51.998;10.440;2023-02-22T03:59:22;7.10;99.90
32107;DHT22;18622;51.998;10.440;2023-02-22T04:01:53;7.10;99.90
32107;DHT22;18622;51.998;10.440;2023-02-22T04:04:23;7.00;99.90
32107;DHT22;18622;51.998;10.440;2023-02-22T04:06:52;7.00;99.90
32107;DHT22;18622;51.998;10.440;2023-02-22T04:09:20;7.00;99.90
32107;DHT22;18622;51.998;10.440;2023-02-22T04:11:47;7.10;99.90
32107;DHT22;18622;51.998;10.440;2023-02-22T04:14:15;7.20;99.90
32107;DHT22;18622;51.998;10.440;2023-02-22T04:16:43;7.30;99.90
32107;DHT22;18622;51.998;10.440;2023-02-22T04:19:11;7.30;99.90
32107;DHT22;18622;51.998;10.440;2023-02-22T04:21:39;7.40;99.90
32107;DHT22;18622;51.998;10.440;2023-02-22T04:24:06;7.50;99.90
32107;DHT22;18622;51.998;10.440;2023-02-22T04:26:34;7.60;99.90
32107;DHT22;18622;51.998;10.440;2023-02-22T04:29:03;7.60;99.90
32107;DHT22;18622;51.998;10.440;2023-02-22T04:31:31;7.70;99.90
32107;DHT22;18622;51.998;10.440;2023-02-22T04:34:00;7.70;99.90
32107;DHT22;18622;51.998;10.440;2023-02-22T04:36:29;7.70;99.90
32107;DHT22;18622;51.998;10.440;2023-02-22T04:39:00;7.70;99.90
32107;DHT22;18622;51.998;10.440;2023-02-22T04:41:27;7.70;99.90
32107;DHT22;18622;51.998;10.440;2023-02-22T04:43:57;7.70;99.90
32107;DHT22;18622;51.998;10.440;2023-02-22T04:46:24;7.70;99.90
32107;DHT22;18622;51.998;10.440;2023-02-22T04:48:53;7.60;99.90
32107;DHT22;18622;51.998;10.440;2023-02-22T04:51:20;7.60;99.90
32107;DHT22;18622;51.998;10.440;2023-02-22T04:53:48;7.50;99.90
32107;DHT22;18622;51.998;10.440;2023-02-22T04:56:17;7.40;99.90
32107;DHT22;18622;51.998;10.440;2023-02-22T04:58:45;7.40;99.90
32107;DHT22;18622;51.998;10.440;2023-02-22T05:01:14;7.30;99.90
32107;DHT22;18622;51.998;10.440;2023-02-22T05:03:42;7.20;99.90
32107;DHT22;18622;51.998;10.440;2023-02-22T05:06:10;7.10;99.90
32107;DHT22;18622;51.998;10.440;2023-02-22T05:08:38;6.90;99.90
32107;DHT22;18622;51.998;10.440;2023-02-22T05:11:06;6.90;99.90
32107;DHT22;18622;51.998;10.440;2023-02-22T05:13:34;6.70;99.90
32107;DHT22;18622;51.998;10.440;2023-02-22T05:16:02;6.60;99.90
32107;DHT22;18622;51.998;10.440;2023-02-22T05:18:30;6.50;99.90
32107;DHT22;18622;51.998;10.440;2023-02-22T05:20:58;6.50;99.90
32107;DHT22;18622;51.998;10.440;2023-02-22T05:23:26;6.40;99.90
32107;DHT22;18622;51.998;10.440;2023-02-22T05:25:54;6.40;99.90
32107;DHT22;18622;51.998;10.440;2023-02-22T05:28:21;6.30;99.90
32107;DHT22;18622;51.998;10.440;2023-02-22T05:30:49;6.30;99.90
32107;DHT22;18622;51.998;10.440;2023-02-22T05:33:17;6.20;99.90
32107;DHT22;18622;51.998;10.440;2023-02-22T05:35:45;6.20;99.90
32107;DHT22;18622;51.998;10.440;2023-02-22T05:38:13;6.20;99.90
32107;DHT22;18622;51.998;10.440;2023-02-22T05:40:42;6.30;99.90
32107;DHT22;18622;51.998;10.440;2023-02-22T05:43:10;6.40;99.90
32107;DHT22;18622;51.998;10.440;2023-02-22T05:45:37;6.50;99.90
32107;DHT22;18622;51.998;10.440;2023-02-22T05:48:05;6.60;99.90
32107;DHT22;18622;51.998;10.440;2023-02-22T05:50:34;6.70;99.90
32107;DHT22;18622;51.998;10.440;2023-02-22T05:53:02;6.80;99.90
32107;DHT22;18622;51.998;10.440;2023-02-22T05:55:31;6.90;99.90
32107;DHT22;18622;51.998;10.440;2023-02-22T05:57:59;7.00;99.90
32107;DHT22;18622;51.998;10.440;2023-02-22T06:00:28;7.10;99.90
32107;DHT22;18622;51.998;10.440;2023-02-22T06:03:05;7.20;99.90
32107;DHT22;18622;51.998;10.440;2023-02-22T06:05:34;7.30;99.90
32107;DHT22;18622;51.998;10.440;2023-02-22T06:08:02;7.40;99.90
32107;DHT22;18622;51.998;10.440;2023-02-22T06:10:30;7.40;99.90
32107;DHT22;18622;51.998;10.440;2023-02-22T06:12:59;7.50;99.90
32107;DHT22;18622;51.998;10.440;2023-02-22T06:15:27;7.60;99.90
32107;DHT22;18622;51.998;10.440;2023-02-22T06:17:56;7.70;99.90
32107;DHT22;18622;51.998;10.440;2023-02-22T06:20:26;7.70;99.90
32107;DHT22;18622;51.998;10.440;2023-02-22T06:22:55;7.70;99.90
32107;DHT22;18622;51.998;10.440;2023-02-22T06:25:25;7.70;99.90
32107;DHT22;18622;51.998;10.440;2023-02-22T06:27:53;7.70;99.90
32107;DHT22;18622;51.998;10.440;2023-02-22T07:26:37;7.10;99.90
32107;DHT22;18622;51.998;10.440;2023-02-22T07:29:06;7.10;99.90
32107;DHT22;18622;51.998;10.440;2023-02-22T07:31:35;7.20;99.90
32107;DHT22;18622;51.998;10.440;2023-02-22T07:34:02;7.20;99.90
32107;DHT22;18622;51.998;10.440;2023-02-22T07:36:30;7.20;99.90
32107;DHT22;18622;51.998;10.440;2023-02-22T07:38:58;7.30;99.90
32107;DHT22;18622;51.998;10.440;2023-02-22T07:41:26;7.30;99.90
32107;DHT22;18622;51.998;10.440;2023-02-22T07:43:54;7.40;99.90
32107;DHT22;18622;51.998;10.440;2023-02-22T07:46:21;7.40;99.90
32107;DHT22;18622;51.998;10.440;2023-02-22T07:48:49;7.40;99.90
32107;DHT22;18622;51.998;10.440;2023-02-22T07:51:17;7.50;99.90
32107;DHT22;18622;51.998;10.440;2023-02-22T07:53:46;7.60;99.90
32107;DHT22;18622;51.998;10.440;2023-02-22T07:56:14;7.70;99.90
32107;DHT22;18622;51.998;10.440;2023-02-22T07:58:43;7.80;99.90
32107;DHT22;18622;51.998;10.440;2023-02-22T08:01:11;8.00;99.90
32107;DHT22;18622;51.998;10.440;2023-02-22T08:03:39;8.20;99.90
32107;DHT22;18622;51.998;10.440;2023-02-22T08:06:08;8.30;99.90
32107;DHT22;18622;51.998;10.440;2023-02-22T08:08:36;8.50;99.90
32107;DHT22;18622;51.998;10.440;2023-02-22T08:11:04;8.70;99.90
32107;DHT22;18622;51.998;10.440;2023-02-22T08:13:32;8.80;99.90
32107;DHT22;18622;51.998;10.440;2023-02-22T08:15:59;9.00;99.90
32107;DHT22;18622;51.998;10.440;2023-02-22T08:18:27;9.20;99.90
32107;DHT22;18622;51.998;10.440;2023-02-22T08:20:55;9.30;99.90
32107;DHT22;18622;51.998;10.440;2023-02-22T08:23:24;9.50;99.90
32107;DHT22;18622;51.998;10.440;2023-02-22T08:25:53;9.60;99.90
32107;DHT22;18622;51.998;10.440;2023-02-22T08:28:23;9.70;99.90
32107;DHT22;18622;51.998;10.440;2023-02-22T08:30:51;9.90;99.90
32107;DHT22;18622;51.998;10.440;2023-02-22T08:33:19;10.00;99.90
32107;DHT22;18622;51.998;10.440;2023-02-22T08:35:48;10.20;99.90
32107;DHT22;18622;51.998;10.440;2023-02-22T08:38:25;10.30;99.90
32107;DHT22;18622;51.998;10.440;2023-02-22T08:40:52;10.40;99.90
32107;DHT22;18622;51.998;10.440;2023-02-22T08:43:21;10.60;99.90
32107;DHT22;18622;51.998;10.440;2023-02-22T08:45:49;10.80;99.90
32107;DHT22;18622;51.998;10.440;2023-02-22T08:48:17;11.00;99.90
32107;DHT22;18622;51.998;10.440;2023-02-22T08:50:45;11.30;99.90
32107;DHT22;18622;51.998;10.440;2023-02-22T08:53:14;11.60;99.90
32107;DHT22;18622;51.998;10.440;2023-02-22T08:55:42;11.90;99.90
32107;DHT22;18622;51.998;10.440;2023-02-22T08:58:10;12.40;99.90
32107;DHT22;18622;51.998;10.440;2023-02-22T09:00:40;12.80;99.90
32107;DHT22;18622;51.998;10.440;2023-02-22T09:03:10;13.30;99.90
32107;DHT22;18622;51.998;10.440;2023-02-22T09:05:40;13.70;99.90
32107;DHT22;18622;51.998;10.440;2023-02-22T09:08:08;13.90;99.90
32107;DHT22;18622;51.998;10.440;2023-02-22T09:10:36;14.20;99.90
32107;DHT22;18622;51.998;10.440;2023-02-22T09:13:04;14.50;98.90
32107;DHT22;18622;51.998;10.440;2023-02-22T09:15:33;14.80;99.10
32107;DHT22;18622;51.998;10.440;2023-02-22T09:18:04;15.20;99.30
32107;DHT22;18622;51.998;10.440;2023-02-22T09:20:33;15.70;99.60
32107;DHT22;18622;51.998;10.440;2023-02-22T09:23:04;16.10;95.80
32107;DHT22;18622;51.998;10.440;2023-02-22T09:25:32;16.50;94.90
32107;DHT22;18622;51.998;10.440;2023-02-22T09:28:00;16.90;94.80
32107;DHT22;18622;51.998;10.440;2023-02-22T09:30:33;17.10;92.30
32107;DHT22;18622;51.998;10.440;2023-02-22T09:33:12;17.30;92.20
32107;DHT22;18622;51.998;10.440;2023-02-22T09:35:42;17.40;91.60
32107;DHT22;18622;51.998;10.440;2023-02-22T09:38:13;17.50;90.00
32107;DHT22;18622;51.998;10.440;2023-02-22T09:40:48;17.70;88.80
32107;DHT22;18622;51.998;10.440;2023-02-22T09:46:04;18.10;86.00
32107;DHT22;18622;51.998;10.440;2023-02-22T09:48:34;18.30;85.30
32107;DHT22;18622;51.998;10.440;2023-02-22T09:51:06;18.50;85.30
32107;DHT22;18622;51.998;10.440;2023-02-22T09:53:39;18.70;83.80
32107;DHT22;18622;51.998;10.440;2023-02-22T09:56:13;18.90;81.70
32107;DHT22;18622;51.998;10.440;2023-02-22T09:58:49;19.20;81.30
32107;DHT22;18622;51.998;10.440;2023-02-22T10:01:41;19.50;79.60
32107;DHT22;18622;51.998;10.440;2023-02-22T10:04:23;19.60;79.30
32107;DHT22;18622;51.998;10.440;2023-02-22T10:07:05;19.70;77.50
32107;DHT22;18622;51.998;10.440;2023-02-22T10:09:34;19.70;76.80
32107;DHT22;18622;51.998;10.440;2023-02-22T10:12:13;19.90;77.80
32107;DHT22;18622;51.998;10.440;2023-02-22T10:15:01;20.20;77.10
32107;DHT22;18622;51.998;10.440;2023-02-22T10:20:27;20.90;73.70
32107;DHT22;18622;51.998;10.440;2023-02-22T10:26:12;21.50;72.40
32107;DHT22;18622;51.998;10.440;2023-02-22T10:28:41;21.70;70.00
32107;DHT22;18622;51.998;10.440;2023-02-22T10:31:12;21.90;71.20
32107;DHT22;18622;51.998;10.440;2023-02-22T10:33:49;22.20;71.00
32107;DHT22;18622;51.998;10.440;2023-02-22T10:36:21;22.50;67.30
32107;DHT22;18622;51.998;10.440;2023-02-22T10:38:59;22.60;66.60
32107;DHT22;18622;51.998;10.440;2023-02-22T10:41:30;22.70;66.50
32107;DHT22;18622;51.998;10.440;2023-02-22T10:43:59;22.90;65.70
32107;DHT22;18622;51.998;10.440;2023-02-22T10:46:29;23.20;65.50
32107;DHT22;18622;51.998;10.440;2023-02-22T10:49:00;23.60;65.00
32107;DHT22;18622;51.998;10.440;2023-02-22T10:51:29;24.00;63.50
32107;DHT22;18622;51.998;10.440;2023-02-22T10:54:13;24.20;62.80
32107;DHT22;18622;51.998;10.440;2023-02-22T10:56:34;24.40;61.10
32107;DHT22;18622;51.998;10.440;2023-02-22T10:59:03;24.60;62.00
32107;DHT22;18622;51.998;10.440;2023-02-22T11:01:35;24.90;59.00
32107;DHT22;18622;51.998;10.440;2023-02-22T11:04:08;25.10;58.90
32107;DHT22;18622;51.998;10.440;2023-02-22T11:06:35;25.40;56.00
32107;DHT22;18622;51.998;10.440;2023-02-22T11:09:21;25.40;57.00
32107;DHT22;18622;51.998;10.440;2023-02-22T11:11:50;25.40;56.50
32107;DHT22;18622;51.998;10.440;2023-02-22T11:14:27;25.50;56.00
32107;DHT22;18622;51.998;10.440;2023-02-22T11:16:56;25.60;55.60
32107;DHT22;18622;51.998;10.440;2023-02-22T11:19:27;26.00;56.40
32107;DHT22;18622;51.998;10.440;2023-02-22T11:22:12;26.30;55.50
32107;DHT22;18622;51.998;10.440;2023-02-22T11:24:49;26.60;54.30
32107;DHT22;18622;51.998;10.440;2023-02-22T11:27:36;26.80;53.20
32107;DHT22;18622;51.998;10.440;2023-02-22T11:30:14;27.00;52.40
32107;DHT22;18622;51.998;10.440;2023-02-22T11:32:44;27.30;52.80
32107;DHT22;18622;51.998;10.440;2023-02-22T11:38:10;27.70;50.10
32107;DHT22;18622;51.998;10.440;2023-02-22T11:40:38;27.70;51.00
32107;DHT22;18622;51.998;10.440;2023-02-22T11:43:15;27.80;51.60
32107;DHT22;18622;51.998;10.440;2023-02-22T11:46:11;28.00;50.60
32107;DHT22;18622;51.998;10.440;2023-02-22T11:48:37;28.10;50.80
32107;DHT22;18622;51.998;10.440;2023-02-22T11:51:22;28.20;49.80
32107;DHT22;18622;51.998;10.440;2023-02-22T11:54:15;28.40;49.60
32107;DHT22;18622;51.998;10.440;2023-02-22T11:56:44;28.50;47.40
32107;DHT22;18622;51.998;10.440;2023-02-22T11:59:23;28.30;48.20
32107;DHT22;18622;51.998;10.440;2023-02-22T12:02:00;28.20;47.30
32107;DHT22;18622;51.998;10.440;2023-02-22T12:04:34;27.90;48.50
32107;DHT22;18622;51.998;10.440;2023-02-22T12:09:57;27.90;48.80
32107;DHT22;18622;51.998;10.440;2023-02-22T12:15:28;28.60;47.60
32107;DHT22;18622;51.998;10.440;2023-02-22T12:18:00;29.00;47.10
32107;DHT22;18622;51.998;10.440;2023-02-22T12:20:44;29.30;46.10
32107;DHT22;18622;51.998;10.440;2023-02-22T12:23:21;29.60;45.00
32107;DHT22;18622;51.998;10.440;2023-02-22T12:26:02;29.70;45.60
32107;DHT22;18622;51.998;10.440;2023-02-22T12:31:24;30.00;44.30
32107;DHT22;18622;51.998;10.440;2023-02-22T12:36:47;30.60;43.40
32107;DHT22;18622;51.998;10.440;2023-02-22T12:39:22;30.80;42.70
32107;DHT22;18622;51.998;10.440;2023-02-22T12:41:57;30.90;42.70
32107;DHT22;18622;51.998;10.440;2023-02-22T12:44:29;30.80;42.40
32107;DHT22;18622;51.998;10.440;2023-02-22T12:46:57;30.60;43.00
32107;DHT22;18622;51.998;10.440;2023-02-22T12:49:47;30.50;43.00
32107;DHT22;18622;51.998;10.440;2023-02-22T12:55:09;30.00;42.80
32107;DHT22;18622;51.998;10.440;2023-02-22T12:57:55;29.70;43.60
32107;DHT22;18622;51.998;10.440;2023-02-22T13:06:03;29.30;43.10
32107;DHT22;18622;51.998;10.440;2023-02-22T13:08:36;29.40;42.50
32107;DHT22;18622;51.998;10.440;2023-02-22T13:11:27;29.00;43.60
32107;DHT22;18622;51.998;10.440;2023-02-22T13:14:14;29.00;44.80
32107;DHT22;18622;51.998;10.440;2023-02-22T13:17:01;29.30;44.30
32107;DHT22;18622;51.998;10.440;2023-02-22T13:22:23;30.00;43.30
32107;DHT22;18622;51.998;10.440;2023-02-22T13:25:14;30.10;42.80
32107;DHT22;18622;51.998;10.440;2023-02-22T13:27:59;30.20;42.50
32107;DHT22;18622;51.998;10.440;2023-02-22T13:33:35;29.40;43.10
32107;DHT22;18622;51.998;10.440;2023-02-22T13:36:14;28.90;43.40
32107;DHT22;18622;51.998;10.440;2023-02-22T13:41:49;27.50;45.70
32107;DHT22;18622;51.998;10.440;2023-02-22T13:44:45;26.90;47.10
32107;DHT22;18622;51.998;10.440;2023-02-22T13:52:54;27.10;47.00
32107;DHT22;18622;51.998;10.440;2023-02-22T13:55:29;27.20;46.50
32107;DHT22;18622;51.998;10.440;2023-02-22T13:58:05;27.30;46.20
32107;DHT22;18622;51.998;10.440;2023-02-22T14:00:53;27.30;46.70
32107;DHT22;18622;51.998;10.440;2023-02-22T14:03:37;27.30;46.30
32107;DHT22;18622;51.998;10.440;2023-02-22T14:06:08;27.30;46.50
32107;DHT22;18622;51.998;10.440;2023-02-22T14:08:38;27.30;46.70
32107;DHT22;18622;51.998;10.440;2023-02-22T14:16:25;26.90;47.00
32107;DHT22;18622;51.998;10.440;2023-02-22T14:21:34;26.60;47.70
32107;DHT22;18622;51.998;10.440;2023-02-22T14:24:15;26.40;47.80
32107;DHT22;18622;51.998;10.440;2023-02-22T14:26:37;26.10;48.00
32107;DHT22;18622;51.998;10.440;2023-02-22T14:29:16;25.90;48.40
32107;DHT22;18622;51.998;10.440;2023-02-22T14:34:44;25.40;49.30
32107;DHT22;18622;51.998;10.440;2023-02-22T14:37:02;25.10;49.40
32107;DHT22;18622;51.998;10.440;2023-02-22T14:39:41;24.70;50.40
32107;DHT22;18622;51.998;10.440;2023-02-22T14:47:55;23.80;51.20
32107;DHT22;18622;51.998;10.440;2023-02-22T14:50:36;23.50;52.60
32107;DHT22;18622;51.998;10.440;2023-02-22T14:53:22;23.20;53.60
32107;DHT22;18622;51.998;10.440;2023-02-22T14:56:03;23.00;53.90
32107;DHT22;18622;51.998;10.440;2023-02-22T14:58:48;22.90;54.30
32107;DHT22;18622;51.998;10.440;2023-02-22T15:01:29;22.90;54.30
32107;DHT22;18622;51.998;10.440;2023-02-22T15:04:20;22.70;54.10
32107;DHT22;18622;51.998;10.440;2023-02-22T15:06:49;22.50;54.60
32107;DHT22;18622;51.998;10.440;2023-02-22T15:09:21;22.30;54.60
32107;DHT22;18622;51.998;10.440;2023-02-22T15:14:35;21.80;56.20
32107;DHT22;18622;51.998;10.440;2023-02-22T15:17:11;21.70;57.30
32107;DHT22;18622;51.998;10.440;2023-02-22T15:19:37;21.70;57.80
32107;DHT22;18622;51.998;10.440;2023-02-22T15:22:05;21.80;57.50
32107;DHT22;18622;51.998;10.440;2023-02-22T15:24:36;21.80;57.60
32107;DHT22;18622;51.998;10.440;2023-02-22T15:27:06;21.70;58.00
32107;DHT22;18622;51.998;10.440;2023-02-22T15:29:43;21.60;57.90
32107;DHT22;18622;51.998;10.440;2023-02-22T15:34:48;21.30;59.30
32107;DHT22;18622;51.998;10.440;2023-02-22T15:37:23;21.10;59.40
32107;DHT22;18622;51.998;10.440;2023-02-22T15:40:06;20.70;60.40
32107;DHT22;18622;51.998;10.440;2023-02-22T15:42:41;20.40;61.60
32107;DHT22;18622;51.998;10.440;2023-02-22T15:45:05;20.00;62.80
32107;DHT22;18622;51.998;10.440;2023-02-22T15:47:33;19.50;63.50
32107;DHT22;18622;51.998;10.440;2023-02-22T15:50:29;19.10;64.60
32107;DHT22;18622;51.998;10.440;2023-02-22T15:53:01;18.80;65.30
32107;DHT22;18622;51.998;10.440;2023-02-22T15:55:35;18.40;66.40
32107;DHT22;18622;51.998;10.440;2023-02-22T15:58:11;18.10;67.40
32107;DHT22;18622;51.998;10.440;2023-02-22T16:00:40;17.70;68.50
32107;DHT22;18622;51.998;10.440;2023-02-22T16:03:17;17.50;68.90
32107;DHT22;18622;51.998;10.440;2023-02-22T16:05:52;17.30;69.20
32107;DHT22;18622;51.998;10.440;2023-02-22T16:08:25;17.00;69.70
32107;DHT22;18622;51.998;10.440;2023-02-22T16:11:00;16.80;69.90
32107;DHT22;18622;51.998;10.440;2023-02-22T16:13:31;16.60;71.00
32107;DHT22;18622;51.998;10.440;2023-02-22T16:16:05;16.40;71.50
32107;DHT22;18622;51.998;10.440;2023-02-22T16:18:35;16.20;72.20
32107;DHT22;18622;51.998;10.440;2023-02-22T16:21:05;16.00;73.20
32107;DHT22;18622;51.998;10.440;2023-02-22T16:28:57;15.50;75.70
32107;DHT22;18622;51.998;10.440;2023-02-22T16:31:27;15.30;76.60
32107;DHT22;18622;51.998;10.440;2023-02-22T16:33:57;15.10;77.60
32107;DHT22;18622;51.998;10.440;2023-02-22T16:36:42;14.90;78.10
32107;DHT22;18622;51.998;10.440;2023-02-22T16:39:22;14.80;79.60
32107;DHT22;18622;51.998;10.440;2023-02-22T16:41:51;14.60;80.30
32107;DHT22;18622;51.998;10.440;2023-02-22T16:44:19;14.40;81.30
32107;DHT22;18622;51.998;10.440;2023-02-22T16:46:47;14.30;82.50
32107;DHT22;18622;51.998;10.440;2023-02-22T16:49:15;14.10;83.00
32107;DHT22;18622;51.998;10.440;2023-02-22T16:51:51;14.00;83.60
32107;DHT22;18622;51.998;10.440;2023-02-22T16:54:26;13.80;84.70
32107;DHT22;18622;51.998;10.440;2023-02-22T16:56:56;13.60;86.60
32107;DHT22;18622;51.998;10.440;2023-02-22T16:59:25;13.50;88.60
32107;DHT22;18622;51.998;10.440;2023-02-22T17:01:54;13.30;90.20
32107;DHT22;18622;51.998;10.440;2023-02-22T17:04:24;13.20;90.90
32107;DHT22;18622;51.998;10.440;2023-02-22T17:06:54;13.10;91.30
32107;DHT22;18622;51.998;10.440;2023-02-22T17:09:23;12.90;91.80
32107;DHT22;18622;51.998;10.440;2023-02-22T17:11:52;12.80;92.60
32107;DHT22;18622;51.998;10.440;2023-02-22T17:14:26;12.70;93.40
32107;DHT22;18622;51.998;10.440;2023-02-22T17:16:54;12.60;94.20
32107;DHT22;18622;51.998;10.440;2023-02-22T17:19:23;12.50;95.20
32107;DHT22;18622;51.998;10.440;2023-02-22T17:21:50;12.50;95.80
32107;DHT22;18622;51.998;10.440;2023-02-22T17:24:21;12.40;96.60
32107;DHT22;18622;51.998;10.440;2023-02-22T17:26:50;12.30;96.90
32107;DHT22;18622;51.998;10.440;2023-02-22T17:29:22;12.30;97.00
32107;DHT22;18622;51.998;10.440;2023-02-22T17:31:51;12.20;97.60
32107;DHT22;18622;51.998;10.440;2023-02-22T17:34:19;12.10;97.70
32107;DHT22;18622;51.998;10.440;2023-02-22T17:36:47;12.00;98.00
32107;DHT22;18622;51.998;10.440;2023-02-22T17:39:15;12.00;98.70
32107;DHT22;18622;51.998;10.440;2023-02-22T17:41:43;11.90;99.10
32107;DHT22;18622;51.998;10.440;2023-02-22T17:44:11;11.90;99.60
32107;DHT22;18622;51.998;10.440;2023-02-22T17:46:39;11.80;99.70
32107;DHT22;18622;51.998;10.440;2023-02-22T17:49:07;11.80;99.70
32107;DHT22;18622;51.998;10.440;2023-02-22T17:51:37;11.70;99.90
32107;DHT22;18622;51.998;10.440;2023-02-22T17:54:04;11.70;99.90
32107;DHT22;18622;51.998;10.440;2023-02-22T17:56:32;11.60;99.90
32107;DHT22;18622;51.998;10.440;2023-02-22T17:58:59;11.60;99.90
32107;DHT22;18622;51.998;10.440;2023-02-22T18:01:30;11.50;99.90
32107;DHT22;18622;51.998;10.440;2023-02-22T18:04:00;11.50;99.90
32107;DHT22;18622;51.998;10.440;2023-02-22T18:06:30;11.40;99.90
32107;DHT22;18622;51.998;10.440;2023-02-22T18:08:59;11.40;99.90
32107;DHT22;18622;51.998;10.440;2023-02-22T18:11:27;11.30;99.90
32107;DHT22;18622;51.998;10.440;2023-02-22T18:13:57;11.30;99.90
32107;DHT22;18622;51.998;10.440;2023-02-22T18:16:25;11.30;99.90
32107;DHT22;18622;51.998;10.440;2023-02-22T18:18:54;11.30;99.90
32107;DHT22;18622;51.998;10.440;2023-02-22T18:21:22;11.20;99.90
32107;DHT22;18622;51.998;10.440;2023-02-22T18:23:51;11.20;99.90
32107;DHT22;18622;51.998;10.440;2023-02-22T18:26:21;11.20;99.90
32107;DHT22;18622;51.998;10.440;2023-02-22T18:28:49;11.20;99.90
32107;DHT22;18622;51.998;10.440;2023-02-22T18:31:20;11.10;99.90
32107;DHT22;18622;51.998;10.440;2023-02-22T18:33:50;11.10;99.90
32107;DHT22;18622;51.998;10.440;2023-02-22T18:36:19;11.10;99.90
32107;DHT22;18622;51.998;10.440;2023-02-22T18:38:50;11.00;99.90
32107;DHT22;18622;51.998;10.440;2023-02-22T18:41:20;11.00;99.90
32107;DHT22;18622;51.998;10.440;2023-02-22T18:43:49;11.00;99.90
32107;DHT22;18622;51.998;10.440;2023-02-22T18:46:20;10.90;99.90
32107;DHT22;18622;51.998;10.440;2023-02-22T18:48:50;10.90;99.90
32107;DHT22;18622;51.998;10.440;2023-02-22T18:51:18;10.80;99.90
32107;DHT22;18622;51.998;10.440;2023-02-22T18:53:45;10.80;99.90
32107;DHT22;18622;51.998;10.440;2023-02-22T18:56:17;10.70;99.90
32107;DHT22;18622;51.998;10.440;2023-02-22T18:58:52;10.70;99.90
32107;DHT22;18622;51.998;10.440;2023-02-22T19:01:20;10.60;99.90
32107;DHT22;18622;51.998;10.440;2023-02-22T19:03:48;10.60;99.90
32107;DHT22;18622;51.998;10.440;2023-02-22T19:06:17;10.60;99.90
32107;DHT22;18622;51.998;10.440;2023-02-22T19:08:47;10.50;99.90
32107;DHT22;18622;51.998;10.440;2023-02-22T19:11:18;10.50;99.90
32107;DHT22;18622;51.998;10.440;2023-02-22T19:13:49;10.40;99.90
32107;DHT22;18622;51.998;10.440;2023-02-22T19:16:18;10.40;99.90
32107;DHT22;18622;51.998;10.440;2023-02-22T19:18:47;10.40;99.90
32107;DHT22;18622;51.998;10.440;2023-02-22T19:21:15;10.40;99.90
32107;DHT22;18622;51.998;10.440;2023-02-22T19:23:43;10.30;99.90
32107;DHT22;18622;51.998;10.440;2023-02-22T19:26:23;10.30;99.90
32107;DHT22;18622;51.998;10.440;2023-02-22T19:28:50;10.30;99.90
32107;DHT22;18622;51.998;10.440;2023-02-22T19:31:27;10.20;99.90
32107;DHT22;18622;51.998;10.440;2023-02-22T19:33:59;10.10;99.90
32107;DHT22;18622;51.998;10.440;2023-02-22T19:36:27;10.10;99.90
32107;DHT22;18622;51.998;10.440;2023-02-22T19:38:57;10.00;99.90
32107;DHT22;18622;51.998;10.440;2023-02-22T19:41:27;10.00;99.90
32107;DHT22;18622;51.998;10.440;2023-02-22T19:43:55;10.00;99.90
32107;DHT22;18622;51.998;10.440;2023-02-22T19:46:23;9.90;99.90
32107;DHT22;18622;51.998;10.440;2023-02-22T19:48:52;9.90;99.90
32107;DHT22;18622;51.998;10.440;2023-02-22T19:51:26;9.80;99.90
32107;DHT22;18622;51.998;10.440;2023-02-22T19:53:55;9.80;99.90
32107;DHT22;18622;51.998;10.440;2023-02-22T19:56:24;9.80;99.90
32107;DHT22;18622;51.998;10.440;2023-02-22T19:58:58;9.80;99.90
32107;DHT22;18622;51.998;10.440;2023-02-22T20:01:30;9.70;99.90
32107;DHT22;18622;51.998;10.440;2023-02-22T20:04:02;9.70;99.90
32107;DHT22;18622;51.998;10.440;2023-02-22T20:06:35;9.70;99.90
32107;DHT22;18622;51.998;10.440;2023-02-22T20:09:06;9.60;99.90
32107;DHT22;18622;51.998;10.440;2023-02-22T20:11:34;9.60;99.90
32107;DHT22;18622;51.998;10.440;2023-02-22T20:14:02;9.50;99.90
32107;DHT22;18622;51.998;10.440;2023-02-22T20:16:33;9.50;99.90
32107;DHT22;18622;51.998;10.440;2023-02-22T20:19:00;9.50;99.90
32107;DHT22;18622;51.998;10.440;2023-02-22T20:21:32;9.50;99.90
32107;DHT22;18622;51.998;10.440;2023-02-22T20:24:01;9.40;99.90
32107;DHT22;18622;51.998;10.440;2023-02-22T20:26:31;9.40;99.90
32107;DHT22;18622;51.998;10.440;2023-02-22T20:28:59;9.40;99.90
32107;DHT22;18622;51.998;10.440;2023-02-22T20:31:30;9.40;99.90
32107;DHT22;18622;51.998;10.440;2023-02-22T20:33:59;9.40;99.90
32107;DHT22;18622;51.998;10.440;2023-02-22T20:36:28;9.30;99.90
32107;DHT22;18622;51.998;10.440;2023-02-22T20:38:58;9.30;99.90
32107;DHT22;18622;51.998;10.440;2023-02-22T20:41:29;9.20;99.90
32107;DHT22;18622;51.998;10.440;2023-02-22T20:43:59;9.20;99.90
32107;DHT22;18622;51.998;10.440;2023-02-22T20:46:28;9.20;99.90
32107;DHT22;18622;51.998;10.440;2023-02-22T20:48:59;9.10;99.90
32107;DHT22;18622;51.998;10.440;2023-02-22T20:51:29;9.10;99.90
32107;DHT22;18622;51.998;10.440;2023-02-22T20:53:57;9.00;99.90
32107;DHT22;18622;51.998;10.440;2023-02-22T20:56:30;9.00;99.90
32107;DHT22;18622;51.998;10.440;2023-02-22T20:58:59;8.90;99.90
32107;DHT22;18622;51.998;10.440;2023-02-22T21:01:28;8.90;99.90
32107;DHT22;18622;51.998;10.440;2023-02-22T21:04:04;8.90;99.90
32107;DHT22;18622;51.998;10.440;2023-02-22T21:06:33;8.90;99.90
32107;DHT22;18622;51.998;10.440;2023-02-22T21:09:02;8.80;99.90
32107;DHT22;18622;51.998;10.440;2023-02-22T21:11:31;8.80;99.90
32107;DHT22;18622;51.998;10.440;2023-02-22T21:14:00;8.80;99.90
32107;DHT22;18622;51.998;10.440;2023-02-22T21:16:30;8.80;99.90
32107;DHT22;18622;51.998;10.440;2023-02-22T21:19:01;8.80;99.90
32107;DHT22;18622;51.998;10.440;2023-02-22T21:21:29;8.80;99.90
32107;DHT22;18622;51.998;10.440;2023-02-22T21:23:58;8.70;99.90
32107;DHT22;18622;51.998;10.440;2023-02-22T21:26:32;8.70;99.90
32107;DHT22;18622;51.998;10.440;2023-02-22T21:29:03;8.70;99.90
32107;DHT22;18622;51.998;10.440;2023-02-22T21:31:30;8.70;99.90
32107;DHT22;18622;51.998;10.440;2023-02-22T21:33:59;8.60;99.90
32107;DHT22;18622;51.998;10.440;2023-02-22T21:36:27;8.60;99.90
32107;DHT22;18622;51.998;10.440;2023-02-22T21:38:57;8.60;99.90
32107;DHT22;18622;51.998;10.440;2023-02-22T21:41:27;8.60;99.90
32107;DHT22;18622;51.998;10.440;2023-02-22T21:43:56;8.60;99.90
